createdAt,value
2022-09-25T00:01:11.044Z,7.81
2022-09-25T00:03:39.251Z,7.78
2022-09-25T00:06:15.040Z,7.82
2022-09-25T00:08:43.297Z,7.74
2022-09-25T00:11:18.345Z,7.63
2022-09-25T00:13:50.034Z,7.53
2022-09-25T00:16:20.752Z,7.57
2022-09-25T00:19:07.547Z,7.58
2022-09-25T00:21:35.853Z,7.40
2022-09-25T00:24:06.467Z,7.49
2022-09-25T00:26:37.421Z,7.48
2022-09-25T00:29:06.374Z,7.29
2022-09-25T00:31:34.380Z,7.38
2022-09-25T00:34:03.921Z,7.43
2022-09-25T00:36:32.860Z,7.37
2022-09-25T00:39:00.826Z,7.38
2022-09-25T00:41:32.077Z,7.32
2022-09-25T00:44:02.460Z,7.27
2022-09-25T00:46:38.496Z,7.27
2022-09-25T00:49:16.733Z,7.20
2022-09-25T00:51:54.627Z,7.14
2022-09-25T00:54:37.057Z,7.07
2022-09-25T00:57:10.820Z,7.05
2022-09-25T00:59:41.637Z,7.01
2022-09-25T01:02:14.440Z,7.08
2022-09-25T01:04:46.262Z,7.18
2022-09-25T01:07:15.085Z,7.13
2022-09-25T01:09:42.479Z,7.11
2022-09-25T01:12:09.917Z,6.97
2022-09-25T01:14:39.521Z,7.00
2022-09-25T01:17:23.240Z,7.02
2022-09-25T01:20:39.780Z,6.95
2022-09-25T01:23:44.081Z,6.91
2022-09-25T01:26:15.595Z,6.90
2022-09-25T01:29:14.759Z,6.85
2022-09-25T01:31:54.191Z,6.82
2022-09-25T01:34:32.483Z,6.79
2022-09-25T01:37:13.803Z,6.77
2022-09-25T01:39:47.264Z,6.57
2022-09-25T01:42:23.139Z,6.84
2022-09-25T01:44:57.971Z,6.84
2022-09-25T01:47:28.994Z,6.76
2022-09-25T01:50:00.541Z,6.89
2022-09-25T01:52:40.878Z,6.87
2022-09-25T01:55:24.059Z,6.84
2022-09-25T01:58:05.736Z,6.82
2022-09-25T02:00:38.064Z,6.80
2022-09-25T02:03:18.366Z,6.80
2022-09-25T02:05:57.552Z,6.79
2022-09-25T02:08:34.223Z,6.81
2022-09-25T02:11:04.717Z,6.73
2022-09-25T02:13:50.657Z,6.71
2022-09-25T02:16:23.221Z,6.68
2022-09-25T02:19:20.577Z,6.63
2022-09-25T02:22:07.373Z,6.53
2022-09-25T02:24:45.558Z,6.44
2022-09-25T02:27:15.562Z,6.46
2022-09-25T02:29:43.351Z,6.42
2022-09-25T02:32:13.652Z,6.36
2022-09-25T02:34:41.877Z,6.45
2022-09-25T02:37:14.495Z,6.39
2022-09-25T02:39:44.986Z,6.30
2022-09-25T02:42:29.031Z,6.33
2022-09-25T02:45:02.500Z,6.28
2022-09-25T02:47:43.588Z,6.32
2022-09-25T02:50:26.734Z,6.36
2022-09-25T02:53:15.280Z,6.36
2022-09-25T02:56:04.685Z,6.37
2022-09-25T02:58:40.988Z,6.38
2022-09-25T03:01:12.680Z,6.30
2022-09-25T03:03:41.460Z,6.25
2022-09-25T03:06:10.546Z,6.25
2022-09-25T03:08:42.518Z,6.17
2022-09-25T03:11:16.253Z,6.07
2022-09-25T03:13:44.807Z,6.02
2022-09-25T03:16:31.480Z,5.97
2022-09-25T03:19:02.226Z,5.86
2022-09-25T03:21:29.940Z,5.88
2022-09-25T03:23:57.198Z,5.91
2022-09-25T03:26:25.476Z,5.97
2022-09-25T03:28:53.645Z,5.97
2022-09-25T03:31:21.794Z,6.00
2022-09-25T03:33:49.393Z,5.96
2022-09-25T03:36:20.830Z,6.06
2022-09-25T03:38:57.958Z,6.04
2022-09-25T03:41:28.142Z,5.98
2022-09-25T03:43:56.759Z,5.99
2022-09-25T03:46:29.684Z,5.96
2022-09-25T03:48:57.263Z,6.02
2022-09-25T03:51:25.804Z,6.04
2022-09-25T03:53:53.829Z,6.10
2022-09-25T03:56:24.472Z,6.03
2022-09-25T03:58:56.474Z,5.94
2022-09-25T04:01:25.032Z,5.96
2022-09-25T04:03:53.417Z,5.91
2022-09-25T04:06:24.502Z,5.86
2022-09-25T04:08:53.836Z,5.78
2022-09-25T04:11:25.075Z,5.81
2022-09-25T04:13:53.044Z,5.81
2022-09-25T04:16:23.991Z,5.84
2022-09-25T04:18:51.810Z,5.87
2022-09-25T04:21:19.269Z,5.87
2022-09-25T04:24:07.476Z,5.92
2022-09-25T04:26:35.834Z,5.91
2022-09-25T04:29:04.474Z,5.86
2022-09-25T04:31:32.689Z,5.89
2022-09-25T04:34:00.473Z,5.92
2022-09-25T04:36:27.967Z,5.95
2022-09-25T04:38:56.719Z,5.86
2022-09-25T04:41:24.783Z,5.98
2022-09-25T04:43:52.311Z,6.05
2022-09-25T04:46:22.596Z,6.12
2022-09-25T04:48:50.896Z,6.16
2022-09-25T04:51:19.421Z,6.19
2022-09-25T04:53:47.559Z,6.18
2022-09-25T04:56:16.634Z,6.28
2022-09-25T04:58:46.567Z,6.44
2022-09-25T05:01:14.083Z,6.62
2022-09-25T05:03:41.760Z,6.58
2022-09-25T05:06:09.895Z,6.59
2022-09-25T05:08:37.520Z,6.58
2022-09-25T05:11:05.088Z,6.54
2022-09-25T05:13:32.366Z,6.73
2022-09-25T05:15:59.906Z,6.87
2022-09-25T05:18:27.859Z,6.92
2022-09-25T05:20:55.411Z,7.11
2022-09-25T05:23:24.880Z,7.18
2022-09-25T05:26:02.671Z,7.35
2022-09-25T05:28:34.490Z,7.48
2022-09-25T05:31:04.018Z,7.60
2022-09-25T05:33:33.463Z,7.74
2022-09-25T05:36:02.586Z,7.88
2022-09-25T05:38:32.871Z,7.93
2022-09-25T05:41:05.199Z,8.03
2022-09-25T05:43:34.177Z,8.27
2022-09-25T05:46:01.921Z,8.42
2022-09-25T05:48:29.250Z,8.62
2022-09-25T05:50:57.651Z,8.80
2022-09-25T05:53:25.350Z,8.93
2022-09-25T05:56:00.374Z,9.04
2022-09-25T05:58:29.482Z,9.16
2022-09-25T06:01:00.928Z,9.35
2022-09-25T06:03:30.700Z,9.46
2022-09-25T06:06:01.722Z,9.64
2022-09-25T06:08:32.891Z,9.80
2022-09-25T06:11:03.687Z,9.82
2022-09-25T06:13:33.240Z,10.13
2022-09-25T06:16:01.200Z,10.24
2022-09-25T06:18:28.517Z,10.43
2022-09-25T06:21:04.726Z,10.57
2022-09-25T06:23:32.483Z,10.77
2022-09-25T06:26:04.271Z,10.94
2022-09-25T06:28:32.609Z,10.94
2022-09-25T06:31:01.782Z,11.25
2022-09-25T06:33:29.327Z,11.41
2022-09-25T06:35:56.535Z,11.48
2022-09-25T06:38:24.421Z,11.66
2022-09-25T06:40:51.681Z,11.71
2022-09-25T06:43:18.990Z,11.83
2022-09-25T06:45:47.945Z,12.06
2022-09-25T06:48:18.150Z,12.11
2022-09-25T06:50:52.888Z,12.40
2022-09-25T06:53:21.730Z,12.45
2022-09-25T06:55:49.730Z,12.58
2022-09-25T06:58:20.628Z,12.82
2022-09-25T07:00:52.187Z,12.93
2022-09-25T07:03:37.965Z,12.94
2022-09-25T07:06:07.531Z,13.11
2022-09-25T07:08:35.038Z,13.31
2022-09-25T07:11:02.414Z,13.47
2022-09-25T07:13:32.163Z,13.59
2022-09-25T07:16:08.560Z,13.71
2022-09-25T07:18:35.828Z,13.88
2022-09-25T07:21:05.976Z,14.05
2022-09-25T07:23:33.959Z,14.19
2022-09-25T07:26:13.845Z,14.40
2022-09-25T07:28:42.555Z,14.57
2022-09-25T07:31:21.704Z,14.68
2022-09-25T07:33:49.498Z,14.86
2022-09-25T07:36:17.970Z,15.01
2022-09-25T07:38:50.014Z,15.12
2022-09-25T07:41:18.590Z,15.33
2022-09-25T07:44:18.104Z,15.37
2022-09-25T07:46:46.894Z,15.43
2022-09-25T07:49:14.356Z,15.66
2022-09-25T07:51:41.697Z,15.83
2022-09-25T07:54:09.176Z,15.94
2022-09-25T07:56:38.468Z,15.92
2022-09-25T07:59:06.020Z,15.99
2022-09-25T08:01:33.332Z,16.10
2022-09-25T08:04:01.803Z,16.27
2022-09-25T08:06:29.133Z,16.49
2022-09-25T08:08:56.514Z,16.57
2022-09-25T08:11:23.958Z,16.70
2022-09-25T08:13:51.450Z,16.87
2022-09-25T08:16:20.877Z,17.02
2022-09-25T08:18:49.697Z,17.20
2022-09-25T08:21:21.177Z,17.40
2022-09-25T08:23:53.778Z,17.60
2022-09-25T08:26:22.203Z,17.71
2022-09-25T08:28:52.187Z,17.82
2022-09-25T08:31:20.115Z,18.01
2022-09-25T08:34:40.445Z,18.09
2022-09-25T08:37:10.266Z,18.23
2022-09-25T08:39:37.703Z,18.21
2022-09-25T08:42:05.310Z,18.23
2022-09-25T08:45:19.455Z,18.17
2022-09-25T08:48:00.275Z,18.17
2022-09-25T08:50:29.901Z,18.35
2022-09-25T08:53:11.387Z,18.55
2022-09-25T08:56:00.649Z,18.73
2022-09-25T08:58:32.538Z,18.81
2022-09-25T09:01:07.535Z,18.88
2022-09-25T09:03:50.917Z,19.09
2022-09-25T09:06:19.038Z,19.12
2022-09-25T09:08:55.355Z,19.17
2022-09-25T09:11:31.072Z,19.30
2022-09-25T09:14:16.094Z,19.43
2022-09-25T09:17:00.954Z,19.52
2022-09-25T09:19:29.069Z,19.55
2022-09-25T09:22:26.978Z,19.77
2022-09-25T09:25:14.774Z,19.77
2022-09-25T09:28:16.437Z,20.04
2022-09-25T09:30:46.355Z,20.30
2022-09-25T09:33:51.336Z,20.41
2022-09-25T09:36:43.058Z,20.41
2022-09-25T09:39:35.283Z,20.39
2022-09-25T09:42:22.008Z,20.38
2022-09-25T09:44:58.771Z,20.67
2022-09-25T09:48:02.440Z,20.72
2022-09-25T09:50:43.360Z,20.95
2022-09-25T09:53:44.242Z,21.02
2022-09-25T09:56:26.018Z,21.13
2022-09-25T09:58:57.292Z,21.18
2022-09-25T10:01:40.932Z,21.15
2022-09-25T10:04:18.291Z,21.11
2022-09-25T10:06:54.001Z,21.25
2022-09-25T10:09:21.118Z,21.41
2022-09-25T10:11:54.203Z,21.62
2022-09-25T10:14:25.093Z,21.66
2022-09-25T10:16:53.984Z,21.57
2022-09-25T10:19:25.261Z,21.69
2022-09-25T10:22:03.419Z,21.69
2022-09-25T10:24:51.444Z,21.87
2022-09-25T10:27:28.534Z,21.86
2022-09-25T10:30:11.260Z,21.97
2022-09-25T10:33:01.912Z,22.04
2022-09-25T10:35:42.318Z,22.12
2022-09-25T10:38:48.338Z,22.22
2022-09-25T10:41:25.779Z,22.21
2022-09-25T10:44:03.222Z,22.35
2022-09-25T10:46:54.425Z,22.48
2022-09-25T10:49:42.837Z,22.37
2022-09-25T10:52:12.220Z,22.63
2022-09-25T10:54:44.762Z,22.77
2022-09-25T11:00:04.115Z,22.75
2022-09-25T11:02:45.789Z,22.91
2022-09-25T11:05:36.023Z,23.01
2022-09-25T11:08:06.657Z,23.18
2022-09-25T11:12:18.754Z,23.13
2022-09-25T11:14:59.160Z,23.26
2022-09-25T11:17:43.346Z,23.34
2022-09-25T11:20:16.733Z,23.31
2022-09-25T11:22:57.223Z,23.32
2022-09-25T11:25:49.556Z,23.43
2022-09-25T11:28:25.364Z,23.50
2022-09-25T11:31:02.975Z,23.59
2022-09-25T11:33:43.251Z,23.59
2022-09-25T11:36:26.203Z,23.56
2022-09-25T11:39:30.313Z,23.52
2022-09-25T11:42:05.469Z,23.56
2022-09-25T11:45:08.327Z,23.43
2022-09-25T11:47:43.512Z,23.34
2022-09-25T11:50:16.471Z,23.28
2022-09-25T11:53:07.217Z,23.30
2022-09-25T11:55:52.677Z,23.25
2022-09-25T11:58:38.545Z,23.26
2022-09-25T12:01:27.201Z,23.17
2022-09-25T12:04:41.720Z,23.16
2022-09-25T12:07:30.431Z,23.09
2022-09-25T12:10:15.061Z,23.30
2022-09-25T12:12:59.229Z,23.46
2022-09-25T12:15:47.097Z,23.44
2022-09-25T12:18:24.190Z,23.40
2022-09-25T12:21:15.261Z,23.42
2022-09-25T12:23:52.468Z,23.59
2022-09-25T12:26:24.331Z,23.62
2022-09-25T12:28:57.481Z,23.62
2022-09-25T12:31:58.727Z,23.62
2022-09-25T12:34:28.859Z,23.70
2022-09-25T12:37:15.277Z,23.79
2022-09-25T12:39:52.389Z,23.80
2022-09-25T12:42:27.436Z,23.80
2022-09-25T12:45:13.313Z,23.93
2022-09-25T12:47:55.759Z,23.96
2022-09-25T12:50:30.661Z,24.05
2022-09-25T12:53:32.720Z,24.08
2022-09-25T12:56:13.400Z,24.10
2022-09-25T12:58:59.482Z,24.18
2022-09-25T13:01:47.599Z,24.23
2022-09-25T13:04:40.499Z,24.22
2022-09-25T13:07:38.420Z,24.19
2022-09-25T13:10:32.749Z,24.23
2022-09-25T13:13:08.143Z,24.20
2022-09-25T13:15:40.469Z,24.29
2022-09-25T13:18:16.841Z,24.07
2022-09-25T13:21:37.146Z,24.03
2022-09-25T13:24:09.479Z,24.05
2022-09-25T13:26:53.784Z,24.19
2022-09-25T13:29:28.865Z,24.25
2022-09-25T13:32:07.182Z,24.21
2022-09-25T13:34:38.939Z,24.22
2022-09-25T13:37:09.721Z,24.18
2022-09-25T13:40:05.068Z,24.16
2022-09-25T13:42:42.198Z,24.22
2022-09-25T13:45:32.789Z,24.22
2022-09-25T13:48:10.495Z,24.24
2022-09-25T13:50:39.866Z,24.28
2022-09-25T13:53:20.730Z,24.27
2022-09-25T13:55:50.667Z,24.21
2022-09-25T13:58:19.972Z,24.18
2022-09-25T14:00:50.436Z,24.19
2022-09-25T14:03:37.244Z,24.12
2022-09-25T14:06:05.446Z,24.15
2022-09-25T14:08:34.684Z,24.21
2022-09-25T14:11:07.736Z,24.15
2022-09-25T14:13:35.609Z,24.11
2022-09-25T14:16:09.238Z,24.13
2022-09-25T14:18:40.994Z,24.01
2022-09-25T14:21:10.058Z,23.95
2022-09-25T14:23:52.498Z,23.97
2022-09-25T14:26:28.203Z,23.96
2022-09-25T14:29:00.199Z,23.98
2022-09-25T14:31:33.451Z,24.00
2022-09-25T14:34:26.299Z,23.96
2022-09-25T14:37:06.029Z,23.91
2022-09-25T14:39:52.089Z,23.83
2022-09-25T14:42:41.469Z,23.75
2022-09-25T14:45:42.653Z,23.68
2022-09-25T14:48:25.074Z,23.55
2022-09-25T14:50:56.113Z,23.50
2022-09-25T14:53:32.753Z,23.37
2022-09-25T14:56:03.102Z,23.34
2022-09-25T14:58:33.031Z,23.34
2022-09-25T15:01:23.503Z,23.29
2022-09-25T15:03:51.334Z,23.20
2022-09-25T15:06:34.209Z,23.15
2022-09-25T15:09:03.297Z,23.08
2022-09-25T15:11:43.338Z,23.02
2022-09-25T15:14:16.682Z,22.93
2022-09-25T15:17:02.918Z,22.84
2022-09-25T15:19:45.674Z,22.70
2022-09-25T15:22:19.596Z,22.59
2022-09-25T15:24:54.298Z,22.57
2022-09-25T15:27:23.419Z,22.53
2022-09-25T15:29:51.700Z,22.38
2022-09-25T15:32:25.651Z,22.34
2022-09-25T15:35:17.640Z,22.16
2022-09-25T15:37:45.823Z,22.04
2022-09-25T15:40:18.564Z,21.95
2022-09-25T15:42:47.974Z,21.83
2022-09-25T15:45:44.448Z,21.67
2022-09-25T15:48:36.270Z,21.50
2022-09-25T15:51:21.712Z,21.22
2022-09-25T15:53:54.886Z,21.13
2022-09-25T15:56:51.286Z,20.98
2022-09-25T15:59:20.217Z,20.92
2022-09-25T16:02:07.719Z,20.77
2022-09-25T16:04:54.456Z,20.67
2022-09-25T16:07:30.140Z,20.56
2022-09-25T16:10:17.855Z,20.40
2022-09-25T16:12:49.498Z,20.29
2022-09-25T16:15:30.136Z,20.09
2022-09-25T16:18:05.721Z,20.06
2022-09-25T16:20:37.989Z,20.01
2022-09-25T16:23:16.996Z,19.90
2022-09-25T16:25:45.225Z,19.84
2022-09-25T16:28:20.466Z,19.74
2022-09-25T16:30:50.420Z,19.62
2022-09-25T16:33:27.525Z,19.55
2022-09-25T16:36:13.110Z,19.44
2022-09-25T16:39:03.430Z,19.36
2022-09-25T16:41:31.057Z,19.22
2022-09-25T16:44:14.900Z,19.21
2022-09-25T16:47:03.715Z,19.14
2022-09-25T16:49:33.791Z,19.09
2022-09-25T16:52:04.512Z,19.02
2022-09-25T16:54:32.807Z,18.99
2022-09-25T16:57:02.548Z,18.95
2022-09-25T16:59:30.478Z,18.86
2022-09-25T17:02:02.441Z,18.78
2022-09-25T17:04:31.197Z,18.74
2022-09-25T17:06:58.670Z,18.65
2022-09-25T17:09:31.747Z,18.61
2022-09-25T17:12:05.335Z,18.48
2022-09-25T17:14:32.554Z,18.45
2022-09-25T17:17:00.053Z,18.38
2022-09-25T17:19:27.842Z,18.30
2022-09-25T17:21:56.218Z,18.19
2022-09-25T17:24:26.925Z,18.14
2022-09-25T17:26:55.129Z,18.10
2022-09-25T17:29:22.707Z,17.99
2022-09-25T17:31:50.739Z,17.97
2022-09-25T17:34:21.116Z,17.95
2022-09-25T17:36:48.201Z,17.85
2022-09-25T17:39:15.378Z,17.75
2022-09-25T17:41:43.136Z,17.69
2022-09-25T17:44:28.901Z,17.49
2022-09-25T17:46:56.661Z,17.35
2022-09-25T17:49:25.316Z,17.22
2022-09-25T17:51:52.942Z,17.17
2022-09-25T17:54:20.911Z,17.08
2022-09-25T17:56:48.644Z,17.04
2022-09-25T17:59:16.045Z,16.97
2022-09-25T18:01:43.316Z,16.83
2022-09-25T18:04:36.557Z,16.70
2022-09-25T18:07:04.008Z,16.58
2022-09-25T18:09:31.272Z,16.47
2022-09-25T18:11:58.592Z,16.45
2022-09-25T18:14:26.183Z,16.39
2022-09-25T18:16:53.484Z,16.39
2022-09-25T18:19:40.013Z,16.37
2022-09-25T18:22:20.809Z,16.26
2022-09-25T18:24:53.054Z,16.05
2022-09-25T18:27:20.681Z,16.03
2022-09-25T18:29:47.712Z,15.87
2022-09-25T18:32:15.909Z,15.93
2022-09-25T18:34:43.303Z,15.73
2022-09-25T18:37:11.255Z,15.81
2022-09-25T18:39:39.012Z,15.78
2022-09-25T18:42:06.476Z,15.76
2022-09-25T18:44:38.534Z,15.74
2022-09-25T18:47:08.935Z,15.55
2022-09-25T18:49:38.060Z,15.55
2022-09-25T18:52:06.439Z,15.50
2022-09-25T18:54:34.277Z,15.56
2022-09-25T18:57:01.357Z,15.57
2022-09-25T18:59:28.427Z,15.42
2022-09-25T19:01:56.011Z,15.41
2022-09-25T19:04:23.714Z,15.36
2022-09-25T19:06:50.962Z,15.25
2022-09-25T19:09:18.836Z,15.19
2022-09-25T19:11:46.255Z,15.14
2022-09-25T19:14:14.997Z,15.10
2022-09-25T19:16:42.880Z,14.94
2022-09-25T19:19:11.392Z,14.92
2022-09-25T19:21:41.678Z,14.95
2022-09-25T19:24:09.508Z,14.90
2022-09-25T19:26:37.413Z,14.77
2022-09-25T19:29:05.406Z,14.79
2022-09-25T19:31:32.720Z,14.78
2022-09-25T19:34:02.406Z,14.70
2022-09-25T19:36:32.383Z,14.56
2022-09-25T19:39:01.011Z,14.51
2022-09-25T19:41:34.134Z,14.30
2022-09-25T19:44:12.763Z,14.36
2022-09-25T19:46:46.488Z,14.14
2022-09-25T19:49:16.341Z,14.13
2022-09-25T19:51:44.470Z,14.01
2022-09-25T19:54:14.978Z,13.86
2022-09-25T19:56:42.561Z,13.78
2022-09-25T19:59:14.298Z,13.79
2022-09-25T20:01:43.141Z,13.73
2022-09-25T20:04:17.177Z,13.65
2022-09-25T20:06:49.472Z,13.53
2022-09-25T20:09:21.495Z,13.47
2022-09-25T20:11:50.806Z,13.44
2022-09-25T20:14:25.798Z,13.31
2022-09-25T20:16:54.114Z,13.26
2022-09-25T20:19:30.476Z,13.19
2022-09-25T20:22:20.111Z,13.19
2022-09-25T20:24:48.018Z,13.07
2022-09-25T20:27:17.555Z,13.08
2022-09-25T20:30:12.864Z,13.00
2022-09-25T20:33:12.058Z,12.90
2022-09-25T20:36:10.841Z,12.77
2022-09-25T20:38:38.030Z,12.73
2022-09-25T20:41:07.808Z,12.71
2022-09-25T20:43:35.631Z,12.68
2022-09-25T20:46:07.184Z,12.56
2022-09-25T20:48:36.613Z,12.66
2022-09-25T20:51:05.258Z,12.64
2022-09-25T20:53:32.815Z,12.56
2022-09-25T20:56:13.384Z,12.46
2022-09-25T20:58:41.918Z,12.41
2022-09-25T21:01:12.779Z,12.35
2022-09-25T21:03:42.013Z,12.20
2022-09-25T21:06:13.725Z,12.31
2022-09-25T21:08:41.281Z,12.35
2022-09-25T21:11:10.510Z,12.38
2022-09-25T21:13:39.863Z,12.27
2022-09-25T21:16:09.981Z,12.32
2022-09-25T21:18:38.013Z,12.37
2022-09-25T21:21:08.119Z,12.30
2022-09-25T21:23:35.389Z,12.32
2022-09-25T21:26:10.204Z,11.98
2022-09-25T21:28:39.061Z,12.22
2022-09-25T21:31:18.222Z,12.28
2022-09-25T21:33:45.714Z,12.36
2022-09-25T21:36:15.475Z,12.27
2022-09-25T21:38:42.740Z,12.12
2022-09-25T21:41:13.517Z,12.07
2022-09-25T21:43:41.278Z,11.96
2022-09-25T21:46:18.464Z,12.00
2022-09-25T21:49:00.463Z,11.97
2022-09-25T21:51:31.122Z,11.74
2022-09-25T21:53:59.295Z,11.76
2022-09-25T21:56:27.898Z,11.64
2022-09-25T21:58:56.532Z,11.66
2022-09-25T22:01:27.177Z,11.65
2022-09-25T22:03:57.257Z,11.62
2022-09-25T22:06:31.009Z,11.69
2022-09-25T22:09:01.916Z,11.61
2022-09-25T22:11:29.722Z,11.53
2022-09-25T22:13:58.730Z,11.46
2022-09-25T22:16:30.479Z,11.42
2022-09-25T22:19:10.499Z,11.29
2022-09-25T22:21:38.652Z,11.18
2022-09-25T22:24:06.124Z,11.25
2022-09-25T22:26:36.728Z,11.24
2022-09-25T22:29:04.763Z,11.18
2022-09-25T22:31:33.800Z,11.23
2022-09-25T22:34:04.619Z,11.15
2022-09-25T22:36:33.650Z,11.25
2022-09-25T22:39:00.599Z,11.14
2022-09-25T22:41:27.789Z,11.13
2022-09-25T22:43:55.473Z,11.06
2022-09-25T22:46:24.452Z,10.99
2022-09-25T22:48:52.118Z,10.99
2022-09-25T22:51:24.307Z,11.08
2022-09-25T22:53:52.375Z,11.16
2022-09-25T22:56:23.168Z,11.10
2022-09-25T22:58:53.151Z,11.11
2022-09-25T23:01:33.737Z,11.03
2022-09-25T23:04:03.670Z,10.92
2022-09-25T23:06:32.475Z,10.90
2022-09-25T23:09:03.440Z,10.92
2022-09-25T23:11:30.916Z,11.03
2022-09-25T23:14:03.384Z,10.96
2022-09-25T23:16:32.297Z,10.88
2022-09-25T23:19:00.391Z,10.85
2022-09-25T23:21:29.773Z,10.94
2022-09-25T23:23:58.559Z,10.88
2022-09-25T23:26:26.466Z,10.80
2022-09-25T23:28:54.126Z,10.82
2022-09-25T23:31:22.142Z,10.77
2022-09-25T23:33:49.424Z,10.73
2022-09-25T23:36:20.403Z,10.68
2022-09-25T23:38:49.479Z,10.63
2022-09-25T23:41:37.918Z,10.71
2022-09-25T23:44:08.122Z,10.71
2022-09-25T23:46:38.469Z,10.76
2022-09-25T23:49:06.273Z,10.78
2022-09-25T23:51:33.900Z,10.69
2022-09-25T23:54:02.093Z,10.67
2022-09-25T23:56:32.315Z,10.65
2022-09-25T23:59:03.602Z,10.58
